createdAt,value
2023-03-24T00:01:13.034Z,14.70
2023-03-24T00:03:49.066Z,14.72
2023-03-24T00:06:26.472Z,14.72
2023-03-24T00:09:00.624Z,14.72
2023-03-24T00:11:36.181Z,14.68
2023-03-24T00:14:12.061Z,14.68
2023-03-24T00:16:43.728Z,14.70
2023-03-24T00:19:15.820Z,14.68
2023-03-24T00:21:47.582Z,14.68
2023-03-24T00:24:20.166Z,14.68
2023-03-24T00:26:52.121Z,14.67
2023-03-24T00:29:25.565Z,14.67
2023-03-24T00:31:57.246Z,14.63
2023-03-24T00:34:28.942Z,14.63
2023-03-24T00:37:00.617Z,14.61
2023-03-24T00:39:33.046Z,14.61
2023-03-24T00:42:04.740Z,14.62
2023-03-24T00:44:37.906Z,14.61
2023-03-24T00:47:11.095Z,14.61
2023-03-24T00:49:42.960Z,14.62
2023-03-24T00:52:23.787Z,14.65
2023-03-24T00:54:58.275Z,14.62
2023-03-24T00:57:34.821Z,14.63
2023-03-24T01:00:17.001Z,14.63
2023-03-24T01:02:54.128Z,14.63
2023-03-24T01:05:30.780Z,14.61
2023-03-24T01:08:03.723Z,14.60
2023-03-24T01:10:42.597Z,14.58
2023-03-24T01:13:14.446Z,14.58
2023-03-24T01:15:46.202Z,14.50
2023-03-24T01:18:18.627Z,14.52
2023-03-24T01:20:50.799Z,14.50
2023-03-24T01:23:25.796Z,14.48
2023-03-24T01:25:57.529Z,14.49
2023-03-24T01:28:32.263Z,14.50
2023-03-24T01:31:04.106Z,14.47
2023-03-24T01:33:37.260Z,14.44
2023-03-24T01:36:09.193Z,14.45
2023-03-24T01:38:41.033Z,14.42
2023-03-24T01:41:12.694Z,14.37
2023-03-24T01:43:44.887Z,14.34
2023-03-24T01:46:21.832Z,14.31
2023-03-24T01:49:02.577Z,14.32
2023-03-24T01:51:42.084Z,14.31
2023-03-24T01:54:27.661Z,14.32
2023-03-24T01:57:14.218Z,14.31
2023-03-24T01:59:49.179Z,14.30
2023-03-24T02:02:43.173Z,14.29
2023-03-24T02:05:17.700Z,14.34
2023-03-24T02:08:13.721Z,14.32
2023-03-24T02:10:46.762Z,14.29
2023-03-24T02:13:19.123Z,14.30
2023-03-24T02:16:27.170Z,14.27
2023-03-24T02:19:25.216Z,14.25
2023-03-24T02:22:06.347Z,14.25
2023-03-24T02:24:43.986Z,14.20
2023-03-24T02:27:57.206Z,14.23
2023-03-24T02:30:56.701Z,14.28
2023-03-24T02:33:43.503Z,14.28
2023-03-24T02:36:24.428Z,14.27
2023-03-24T02:39:28.873Z,14.25
2023-03-24T02:42:25.211Z,14.27
2023-03-24T02:45:18.487Z,14.25
2023-03-24T02:47:52.977Z,14.27
2023-03-24T02:50:27.619Z,14.25
2023-03-24T02:53:23.057Z,14.24
2023-03-24T02:56:44.564Z,14.22
2023-03-24T02:59:37.557Z,14.23
2023-03-24T03:02:33.170Z,14.23
2023-03-24T03:05:14.948Z,14.24
2023-03-24T03:07:50.126Z,14.20
2023-03-24T03:10:25.561Z,14.22
2023-03-24T03:13:01.524Z,14.21
2023-03-24T03:15:42.925Z,14.18
2023-03-24T03:18:27.823Z,14.16
2023-03-24T03:21:08.896Z,14.16
2023-03-24T03:23:47.846Z,14.10
2023-03-24T03:26:24.166Z,14.14
2023-03-24T03:29:01.796Z,14.10
2023-03-24T03:31:49.621Z,14.08
2023-03-24T03:34:37.572Z,14.08
2023-03-24T03:37:51.307Z,14.04
2023-03-24T03:40:51.422Z,13.98
2023-03-24T03:43:28.082Z,14.00
2023-03-24T03:46:01.284Z,13.99
2023-03-24T03:48:40.598Z,13.96
2023-03-24T03:51:14.856Z,13.94
2023-03-24T03:54:01.120Z,13.91
2023-03-24T03:56:36.516Z,13.93
2023-03-24T03:59:38.519Z,13.90
2023-03-24T04:02:28.384Z,13.89
2023-03-24T04:05:10.446Z,13.88
2023-03-24T04:08:32.024Z,13.90
2023-03-24T04:11:41.779Z,13.90
2023-03-24T04:14:47.036Z,13.91
2023-03-24T04:18:05.551Z,13.94
2023-03-24T04:21:02.294Z,13.93
2023-03-24T04:23:50.480Z,13.91
2023-03-24T04:26:41.329Z,13.93
2023-03-24T04:29:34.534Z,13.90
2023-03-24T04:32:21.354Z,13.92
2023-03-24T04:35:02.805Z,13.96
2023-03-24T04:38:09.339Z,13.90
2023-03-24T04:40:49.568Z,13.92
2023-03-24T04:43:26.981Z,13.92
2023-03-24T04:46:00.762Z,13.93
2023-03-24T04:48:41.174Z,13.94
2023-03-24T04:51:19.530Z,13.98
2023-03-24T04:54:02.076Z,13.93
2023-03-24T04:56:43.769Z,13.91
2023-03-24T04:59:22.054Z,13.97
2023-03-24T05:01:54.400Z,13.94
2023-03-24T05:04:49.104Z,13.94
2023-03-24T05:07:29.357Z,13.97
2023-03-24T05:10:06.492Z,13.98
2023-03-24T05:12:44.046Z,13.99
2023-03-24T05:15:18.730Z,14.01
2023-03-24T05:17:56.837Z,14.02
2023-03-24T05:20:33.547Z,14.06
2023-03-24T05:23:15.127Z,14.07
2023-03-24T05:25:51.268Z,14.10
2023-03-24T05:28:26.111Z,14.14
2023-03-24T05:31:02.362Z,14.17
2023-03-24T05:33:49.750Z,14.18
2023-03-24T05:36:27.135Z,14.17
2023-03-24T05:39:01.446Z,14.17
2023-03-24T05:41:47.285Z,14.20
2023-03-24T05:44:18.953Z,14.23
2023-03-24T05:47:07.587Z,14.24
2023-03-24T05:49:39.341Z,14.23
2023-03-24T05:52:11.908Z,14.23
2023-03-24T05:54:47.153Z,14.30
2023-03-24T05:57:23.293Z,14.34
2023-03-24T06:00:17.108Z,14.38
2023-03-24T06:03:02.003Z,14.43
2023-03-24T06:05:45.889Z,14.42
2023-03-24T06:08:18.721Z,14.46
2023-03-24T06:10:53.456Z,14.45
2023-03-24T06:13:30.158Z,14.47
2023-03-24T06:16:05.218Z,14.51
2023-03-24T06:18:42.791Z,14.53
2023-03-24T06:21:35.139Z,14.56
2023-03-24T06:24:07.339Z,14.63
2023-03-24T06:26:42.201Z,14.66
2023-03-24T06:29:14.154Z,14.70
2023-03-24T06:31:51.155Z,14.72
2023-03-24T06:34:25.090Z,14.69
2023-03-24T06:37:15.647Z,14.75
2023-03-24T06:39:47.359Z,14.79
2023-03-24T06:42:21.370Z,14.79
2023-03-24T06:44:53.473Z,14.77
2023-03-24T06:47:25.265Z,14.76
2023-03-24T06:49:57.275Z,14.78
2023-03-24T06:52:28.968Z,14.80
2023-03-24T06:55:01.241Z,14.77
2023-03-24T06:57:34.893Z,14.77
2023-03-24T07:00:25.804Z,14.80
2023-03-24T07:03:08.669Z,14.73
2023-03-24T07:05:45.202Z,14.68
2023-03-24T07:08:36.495Z,14.71
2023-03-24T07:11:10.201Z,14.68
2023-03-24T07:13:45.556Z,14.72
2023-03-24T07:16:17.862Z,14.71
2023-03-24T07:18:51.666Z,14.75
2023-03-24T07:21:23.508Z,14.83
2023-03-24T07:23:56.235Z,14.88
2023-03-24T07:26:35.054Z,14.91
2023-03-24T07:29:15.385Z,14.98
2023-03-24T07:32:19.604Z,15.12
2023-03-24T07:34:51.496Z,15.19
2023-03-24T07:37:24.488Z,15.29
2023-03-24T07:39:56.234Z,15.36
2023-03-24T07:42:28.960Z,15.45
2023-03-24T07:45:20.850Z,15.52
2023-03-24T07:47:52.789Z,15.59
2023-03-24T07:50:24.601Z,15.60
2023-03-24T07:52:59.374Z,15.60
2023-03-24T07:55:32.128Z,15.66
2023-03-24T07:58:14.528Z,15.76
2023-03-24T08:00:59.442Z,15.81
2023-03-24T08:03:44.656Z,15.86
2023-03-24T08:06:22.763Z,15.89
2023-03-24T08:08:56.038Z,15.92
2023-03-24T08:11:27.922Z,15.98
2023-03-24T08:13:59.926Z,16.03
2023-03-24T08:16:31.894Z,16.03
2023-03-24T08:19:03.700Z,16.08
2023-03-24T08:21:35.566Z,16.14
2023-03-24T08:24:07.539Z,16.21
2023-03-24T08:26:40.171Z,16.25
2023-03-24T08:29:12.010Z,16.30
2023-03-24T08:31:43.757Z,16.38
2023-03-24T08:34:15.615Z,16.41
2023-03-24T08:36:47.397Z,16.49
2023-03-24T08:39:20.787Z,16.55
2023-03-24T08:41:54.942Z,16.58
2023-03-24T08:44:26.683Z,16.65
2023-03-24T08:47:00.769Z,16.75
2023-03-24T08:49:32.649Z,16.90
2023-03-24T08:52:04.398Z,17.12
2023-03-24T08:54:36.577Z,17.28
2023-03-24T08:57:08.292Z,17.44
2023-03-24T08:59:40.265Z,17.56
2023-03-24T09:02:12.635Z,17.67
2023-03-24T09:04:45.933Z,17.79
2023-03-24T09:07:17.822Z,17.85
2023-03-24T09:09:49.549Z,17.99
2023-03-24T09:12:21.306Z,18.14
2023-03-24T09:14:53.465Z,18.24
2023-03-24T09:17:25.385Z,18.33
2023-03-24T09:19:57.321Z,18.62
2023-03-24T09:22:29.003Z,18.84
2023-03-24T09:25:00.746Z,18.76
2023-03-24T09:27:33.068Z,18.70
2023-03-24T09:30:09.596Z,18.82
2023-03-24T09:32:41.869Z,18.90
2023-03-24T09:35:14.539Z,18.84
2023-03-24T09:37:46.762Z,18.89
2023-03-24T09:40:23.771Z,19.10
2023-03-24T09:43:04.514Z,19.49
2023-03-24T09:45:44.992Z,19.68
2023-03-24T09:48:39.469Z,19.92
2023-03-24T09:51:22.767Z,19.86
2023-03-24T09:54:00.656Z,19.85
2023-03-24T09:56:36.278Z,19.90
2023-03-24T09:59:17.877Z,20.01
2023-03-24T10:01:49.754Z,20.09
2023-03-24T10:04:27.280Z,20.07
2023-03-24T10:07:28.112Z,19.92
2023-03-24T10:10:01.475Z,19.86
2023-03-24T10:12:44.696Z,19.75
2023-03-24T10:15:38.092Z,19.75
2023-03-24T10:18:13.112Z,19.81
2023-03-24T10:20:55.042Z,19.79
2023-03-24T10:23:35.875Z,19.80
2023-03-24T10:26:27.650Z,19.75
2023-03-24T10:29:23.233Z,19.76
2023-03-24T10:32:02.761Z,19.73
2023-03-24T10:34:35.262Z,19.65
2023-03-24T10:37:07.424Z,19.56
2023-03-24T10:39:44.778Z,19.47
2023-03-24T10:42:21.843Z,19.30
2023-03-24T10:44:56.542Z,19.26
2023-03-24T10:47:32.833Z,19.08
2023-03-24T10:50:12.791Z,19.02
2023-03-24T10:52:48.888Z,18.93
2023-03-24T10:55:23.884Z,18.87
2023-03-24T10:58:00.601Z,18.84
2023-03-24T11:00:32.716Z,18.81
2023-03-24T11:03:11.857Z,18.78
2023-03-24T11:05:45.385Z,18.77
2023-03-24T11:08:17.469Z,18.90
2023-03-24T11:10:49.450Z,19.02
2023-03-24T11:13:26.000Z,19.12
2023-03-24T11:16:17.135Z,19.32
2023-03-24T11:19:01.927Z,19.36
2023-03-24T11:21:37.004Z,19.26
2023-03-24T11:24:15.816Z,19.09
2023-03-24T11:26:56.776Z,18.97
2023-03-24T11:29:39.903Z,19.07
2023-03-24T11:32:25.649Z,19.08
2023-03-24T11:35:07.851Z,19.08
2023-03-24T11:37:41.343Z,19.03
2023-03-24T11:40:12.976Z,18.93
2023-03-24T11:43:00.773Z,18.89
2023-03-24T11:45:43.136Z,18.84
2023-03-24T11:48:30.205Z,18.77
2023-03-24T11:51:04.315Z,18.71
2023-03-24T11:53:44.666Z,18.70
2023-03-24T11:56:34.507Z,18.63
2023-03-24T11:59:32.685Z,18.59
2023-03-24T12:02:13.664Z,18.63
2023-03-24T12:04:57.139Z,18.57
2023-03-24T12:07:59.067Z,18.50
2023-03-24T12:10:51.130Z,18.57
2023-03-24T12:13:35.178Z,18.52
2023-03-24T12:16:31.423Z,18.47
2023-03-24T12:19:28.026Z,18.43
2023-03-24T12:22:15.530Z,18.31
2023-03-24T12:24:54.956Z,18.21
2023-03-24T12:27:27.260Z,18.17
2023-03-24T12:30:18.685Z,18.15
2023-03-24T12:33:23.582Z,18.21
2023-03-24T12:36:18.844Z,18.27
2023-03-24T12:39:02.083Z,18.20
2023-03-24T12:41:45.977Z,18.12
2023-03-24T12:44:36.421Z,18.07
2023-03-24T12:47:38.348Z,18.12
2023-03-24T12:50:18.641Z,18.12
2023-03-24T12:53:23.056Z,18.26
2023-03-24T12:56:02.107Z,18.34
2023-03-24T12:58:53.939Z,18.29
2023-03-24T13:01:51.611Z,18.27
2023-03-24T13:04:33.756Z,18.10
2023-03-24T13:07:11.928Z,17.98
2023-03-24T13:10:06.784Z,17.98
2023-03-24T13:12:46.156Z,17.99
2023-03-24T13:15:33.531Z,17.90
2023-03-24T13:18:11.325Z,17.89
2023-03-24T13:21:01.219Z,17.88
2023-03-24T13:23:37.837Z,17.94
2023-03-24T13:26:34.137Z,17.92
2023-03-24T13:29:23.980Z,18.00
2023-03-24T13:32:05.821Z,18.08
2023-03-24T13:34:43.172Z,18.16
2023-03-24T13:37:32.254Z,18.22
2023-03-24T13:40:28.433Z,18.21
2023-03-24T13:43:07.278Z,18.11
2023-03-24T13:46:13.589Z,17.99
2023-03-24T13:48:50.493Z,17.98
2023-03-24T13:51:27.361Z,17.95
2023-03-24T13:54:07.028Z,17.95
2023-03-24T13:57:14.366Z,17.90
2023-03-24T14:00:14.326Z,17.66
2023-03-24T14:02:54.149Z,17.65
2023-03-24T14:05:59.666Z,17.61
2023-03-24T14:08:52.511Z,17.62
2023-03-24T14:11:38.291Z,17.59
2023-03-24T14:14:16.052Z,17.52
2023-03-24T14:17:06.116Z,17.56
2023-03-24T14:19:44.659Z,17.55
2023-03-24T14:22:30.432Z,17.57
2023-03-24T14:25:02.190Z,17.57
2023-03-24T14:27:38.025Z,17.55
2023-03-24T14:30:31.917Z,17.58
2023-03-24T14:33:04.537Z,17.62
2023-03-24T14:35:42.049Z,17.64
2023-03-24T14:38:16.485Z,17.64
2023-03-24T14:40:51.918Z,17.72
2023-03-24T14:43:43.797Z,17.72
2023-03-24T14:46:21.369Z,17.78
2023-03-24T14:49:23.544Z,17.77
2023-03-24T14:52:13.775Z,17.80
2023-03-24T14:54:54.342Z,17.62
2023-03-24T14:57:43.819Z,17.53
2023-03-24T15:00:29.752Z,17.47
2023-03-24T15:03:11.423Z,17.51
2023-03-24T15:05:43.474Z,17.46
2023-03-24T15:08:17.849Z,17.46
2023-03-24T15:11:04.463Z,17.51
2023-03-24T15:13:49.314Z,17.55
2023-03-24T15:16:33.640Z,17.63
2023-03-24T15:19:23.409Z,17.70
2023-03-24T15:22:04.275Z,17.71
2023-03-24T15:24:42.281Z,17.76
2023-03-24T15:27:16.965Z,17.74
2023-03-24T15:29:56.062Z,17.78
2023-03-24T15:32:31.779Z,17.75
2023-03-24T15:35:06.704Z,17.71
2023-03-24T15:37:41.453Z,17.77
2023-03-24T15:40:31.593Z,17.79
2023-03-24T15:43:06.816Z,17.85
2023-03-24T15:45:51.024Z,17.79
2023-03-24T15:48:27.401Z,17.86
2023-03-24T15:51:00.836Z,17.86
2023-03-24T15:53:56.261Z,17.82
2023-03-24T15:56:36.342Z,17.70
2023-03-24T15:59:11.794Z,17.65
2023-03-24T16:01:45.268Z,17.63
2023-03-24T16:04:20.706Z,17.53
2023-03-24T16:06:54.391Z,17.44
2023-03-24T16:09:37.850Z,17.44
2023-03-24T16:12:12.565Z,17.45
2023-03-24T16:14:44.259Z,17.40
2023-03-24T16:17:15.953Z,17.42
2023-03-24T16:19:47.717Z,17.42
2023-03-24T16:22:19.417Z,17.41
2023-03-24T16:24:51.208Z,17.36
2023-03-24T16:27:22.875Z,17.37
2023-03-24T16:29:55.852Z,17.34
2023-03-24T16:32:27.588Z,17.30
2023-03-24T16:34:59.291Z,17.16
2023-03-24T16:37:31.705Z,17.06
2023-03-24T16:40:06.286Z,17.01
2023-03-24T16:42:38.058Z,16.84
2023-03-24T16:45:10.224Z,16.79
2023-03-24T16:47:41.984Z,16.63
2023-03-24T16:50:34.619Z,16.47
2023-03-24T16:53:08.785Z,16.38
2023-03-24T16:55:41.681Z,16.09
2023-03-24T16:58:16.316Z,15.86
2023-03-24T17:00:49.220Z,15.66
2023-03-24T17:03:23.584Z,15.49
2023-03-24T17:05:56.820Z,15.34
2023-03-24T17:08:28.614Z,14.99
2023-03-24T17:11:01.628Z,14.69
2023-03-24T17:13:33.312Z,14.38
2023-03-24T17:16:09.254Z,14.10
2023-03-24T17:18:41.292Z,13.97
2023-03-24T17:21:16.730Z,13.85
2023-03-24T17:23:55.053Z,13.80
2023-03-24T17:26:26.882Z,13.84
2023-03-24T17:28:58.619Z,13.79
2023-03-24T17:31:30.886Z,13.81
2023-03-24T17:34:15.122Z,13.89
2023-03-24T17:36:53.006Z,13.82
2023-03-24T17:39:26.701Z,13.86
2023-03-24T17:42:01.324Z,13.86
2023-03-24T17:44:33.752Z,13.89
2023-03-24T17:47:05.634Z,13.93
2023-03-24T17:49:37.540Z,13.96
2023-03-24T17:52:09.278Z,13.97
2023-03-24T17:54:41.148Z,13.98
2023-03-24T17:57:12.877Z,13.98
2023-03-24T17:59:44.659Z,14.02
2023-03-24T18:02:17.799Z,14.02
2023-03-24T18:04:49.588Z,14.02
2023-03-24T18:07:21.364Z,13.99
2023-03-24T18:09:53.066Z,13.98
2023-03-24T18:12:26.001Z,13.94
2023-03-24T18:14:57.784Z,13.96
2023-03-24T18:17:29.526Z,13.99
2023-03-24T18:20:09.921Z,14.00
2023-03-24T18:22:41.601Z,13.94
2023-03-24T18:25:14.147Z,13.92
2023-03-24T18:27:45.930Z,13.91
2023-03-24T18:30:17.641Z,13.91
2023-03-24T18:32:50.547Z,13.94
2023-03-24T18:35:22.563Z,13.96
2023-03-24T18:37:55.173Z,13.92
2023-03-24T18:40:29.402Z,13.94
2023-03-24T18:43:01.655Z,13.98
2023-03-24T18:45:33.319Z,14.00
2023-03-24T18:48:05.360Z,14.01
2023-03-24T18:50:42.575Z,14.02
2023-03-24T18:53:14.564Z,14.04
2023-03-24T18:55:49.321Z,13.97
2023-03-24T18:58:21.193Z,13.94
2023-03-24T19:00:55.456Z,13.93
2023-03-24T19:03:27.353Z,13.98
2023-03-24T19:06:06.298Z,13.99
2023-03-24T19:08:41.035Z,13.91
2023-03-24T19:11:14.403Z,13.90
2023-03-24T19:13:47.268Z,13.91
2023-03-24T19:16:20.688Z,13.90
2023-03-24T19:18:52.830Z,13.86
2023-03-24T19:21:25.573Z,13.86
2023-03-24T19:23:57.293Z,13.84
2023-03-24T19:26:29.015Z,13.78
2023-03-24T19:29:03.170Z,13.77
2023-03-24T19:31:35.215Z,13.75
2023-03-24T19:34:07.040Z,13.76
2023-03-24T19:36:41.725Z,13.74
2023-03-24T19:39:17.628Z,13.75
2023-03-24T19:41:49.430Z,13.72
2023-03-24T19:44:22.544Z,13.69
2023-03-24T19:46:54.249Z,13.67
2023-03-24T19:49:25.974Z,13.66
2023-03-24T19:51:58.356Z,13.65
2023-03-24T19:54:30.048Z,13.65
2023-03-24T19:57:02.168Z,13.63
2023-03-24T19:59:34.884Z,13.61
2023-03-24T20:02:06.627Z,13.60
2023-03-24T20:04:38.314Z,13.59
2023-03-24T20:07:10.583Z,13.56
2023-03-24T20:09:42.425Z,13.53
2023-03-24T20:12:14.119Z,13.53
2023-03-24T20:14:45.874Z,13.48
2023-03-24T20:17:19.818Z,13.46
2023-03-24T20:19:51.923Z,13.45
2023-03-24T20:22:23.733Z,13.45
2023-03-24T20:24:55.884Z,13.40
2023-03-24T20:27:30.906Z,13.43
2023-03-24T20:30:03.456Z,13.39
2023-03-24T20:32:38.816Z,13.39
2023-03-24T20:35:11.254Z,13.34
2023-03-24T20:37:43.134Z,13.31
2023-03-24T20:40:14.932Z,13.24
2023-03-24T20:42:46.618Z,13.21
2023-03-24T20:45:18.348Z,13.18
2023-03-24T20:47:50.336Z,13.18
2023-03-24T20:50:22.082Z,13.18
2023-03-24T20:52:53.795Z,13.13
2023-03-24T20:55:26.012Z,13.10
2023-03-24T20:57:57.815Z,13.04
2023-03-24T21:00:29.820Z,13.01
2023-03-24T21:03:07.573Z,12.96
2023-03-24T21:05:39.543Z,12.90
2023-03-24T21:08:11.251Z,12.89
2023-03-24T21:10:43.078Z,12.88
2023-03-24T21:13:16.811Z,12.89
2023-03-24T21:15:49.001Z,12.87
2023-03-24T21:18:21.213Z,12.85
2023-03-24T21:20:55.224Z,12.88
2023-03-24T21:23:26.936Z,12.88
2023-03-24T21:25:58.685Z,12.86
2023-03-24T21:28:31.038Z,12.89
2023-03-24T21:31:15.838Z,12.84
2023-03-24T21:33:47.695Z,12.83
2023-03-24T21:36:20.820Z,12.79
2023-03-24T21:38:54.154Z,12.70
2023-03-24T21:41:26.043Z,12.69
2023-03-24T21:44:00.656Z,12.64
2023-03-24T21:46:32.893Z,12.64
2023-03-24T21:49:11.043Z,12.62
2023-03-24T21:51:42.879Z,12.59
2023-03-24T21:54:15.140Z,12.55
2023-03-24T21:56:47.999Z,12.54
2023-03-24T21:59:20.111Z,12.52
2023-03-24T22:01:54.692Z,12.53
2023-03-24T22:04:27.721Z,12.47
2023-03-24T22:07:06.377Z,12.42
2023-03-24T22:09:38.164Z,12.39
2023-03-24T22:12:09.844Z,12.39
2023-03-24T22:14:41.672Z,12.38
2023-03-24T22:17:13.402Z,12.40
2023-03-24T22:19:45.080Z,12.38
2023-03-24T22:22:16.874Z,12.37
2023-03-24T22:24:48.703Z,12.34
2023-03-24T22:27:20.952Z,12.29
2023-03-24T22:29:52.615Z,12.23
2023-03-24T22:32:24.297Z,12.21
2023-03-24T22:34:56.027Z,12.21
2023-03-24T22:37:28.994Z,12.21
2023-03-24T22:40:00.637Z,12.24
2023-03-24T22:42:32.391Z,12.23
2023-03-24T22:45:04.741Z,12.22
2023-03-24T22:47:36.512Z,12.21
2023-03-24T22:50:09.610Z,12.17
2023-03-24T22:52:41.334Z,12.16
2023-03-24T22:55:13.063Z,12.16
2023-03-24T22:57:47.790Z,12.16
2023-03-24T23:00:23.703Z,12.13
2023-03-24T23:02:55.364Z,12.12
2023-03-24T23:05:27.134Z,12.08
2023-03-24T23:07:59.661Z,12.07
2023-03-24T23:10:31.417Z,12.11
2023-03-24T23:13:04.254Z,12.08
2023-03-24T23:15:37.835Z,12.03
2023-03-24T23:18:09.843Z,12.00
2023-03-24T23:20:42.768Z,11.97
2023-03-24T23:23:15.256Z,12.00
2023-03-24T23:25:48.605Z,12.02
2023-03-24T23:28:20.606Z,12.00
2023-03-24T23:30:53.693Z,12.04
2023-03-24T23:33:25.696Z,11.98
2023-03-24T23:35:59.514Z,11.90
2023-03-24T23:38:31.600Z,11.89
2023-03-24T23:41:06.012Z,11.87
2023-03-24T23:43:39.819Z,11.86
2023-03-24T23:46:11.610Z,11.84
2023-03-24T23:48:43.306Z,11.83
2023-03-24T23:51:15.488Z,11.84
2023-03-24T23:53:47.160Z,11.80
2023-03-24T23:56:22.749Z,11.75
2023-03-24T23:58:54.390Z,11.73
